Time;durP1;ratioP1;P1;durP2;ratioP2;P2;SDS_P1;SDS_P2;PMS_P1;PMS_P2;Temp;Humidity;BMP_temperature;BMP_pressure;BME280_temperature;BME280_humidity;BME280_pressure;Samples;Min_cycle;Max_cycle;Signal;HPM_P1;HPM_P2
2023/12/28 00:00:36;;;;;;;3.90;1.60;;;;;;;18.84;44.28;100793.19;5067940;28;20076;-73
2023/12/28 00:03:02;;;;;;;2.88;1.20;;;;;;;18.86;44.46;100806.25;5066440;28;20123;-73
2023/12/28 00:05:27;;;;;;;2.92;1.30;;;;;;;18.94;44.13;100819.66;5066628;28;20107;-73
2023/12/28 00:07:57;;;;;;;3.40;1.47;;;;;;;18.87;44.38;100804.44;5067092;28;20021;-72
2023/12/28 00:10:24;;;;;;;3.60;1.52;;;;;;;18.89;44.09;100806.00;5066854;28;20765;-73
2023/12/28 00:12:49;;;;;;;4.25;1.63;;;;;;;18.88;44.04;100809.59;5065912;28;20028;-72
2023/12/28 00:15:14;;;;;;;3.63;1.50;;;;;;;18.90;44.36;100818.25;5066696;28;20088;-75
2023/12/28 00:17:40;;;;;;;2.83;1.40;;;;;;;18.87;44.24;100821.16;5066889;28;20078;-72
2023/12/28 00:20:05;;;;;;;2.60;1.30;;;;;;;18.86;44.24;100819.47;5067673;28;20610;-73
2023/12/28 00:22:31;;;;;;;3.53;1.60;;;;;;;18.87;44.18;100821.16;5066819;28;20477;-73
2023/12/28 00:24:56;;;;;;;3.17;1.20;;;;;;;18.77;44.08;100807.88;5067379;28;20121;-73
2023/12/28 00:27:21;;;;;;;3.07;1.40;;;;;;;18.75;44.19;100806.31;5066992;28;20063;-73
2023/12/28 00:29:47;;;;;;;3.57;1.57;;;;;;;18.75;44.17;100825.63;5067156;28;20273;-73
2023/12/28 00:32:12;;;;;;;3.45;1.55;;;;;;;18.82;44.18;100849.72;5067469;28;20737;-73
2023/12/28 00:34:39;;;;;;;3.47;1.63;;;;;;;18.80;44.15;100852.50;5067218;28;20049;-73
2023/12/28 00:37:04;;;;;;;2.50;1.30;;;;;;;18.79;44.22;100850.81;5066178;28;20028;-73
2023/12/28 00:39:30;;;;;;;2.65;1.30;;;;;;;18.76;44.06;100842.31;5067005;28;20043;-73
2023/12/28 00:41:55;;;;;;;3.10;1.52;;;;;;;18.74;44.38;100855.66;5066931;28;20028;-73
2023/12/28 00:44:20;;;;;;;3.03;1.50;;;;;;;18.76;44.59;100845.78;5066993;28;20028;-73
2023/12/28 00:46:45;;;;;;;3.35;1.50;;;;;;;18.66;44.40;100839.63;5066940;28;20052;-73
2023/12/28 00:49:11;;;;;;;4.65;1.30;;;;;;;18.76;44.44;100874.81;5067091;28;20045;-73
2023/12/28 00:51:36;;;;;;;2.93;1.40;;;;;;;18.66;44.10;100852.81;5066945;28;20078;-73
2023/12/28 00:54:02;;;;;;;5.05;1.60;;;;;;;18.51;44.56;100828.50;5066539;28;20778;-72
2023/12/28 00:56:27;;;;;;;3.60;1.50;;;;;;;18.59;44.37;100846.34;5066858;28;20067;-73
2023/12/28 00:58:52;;;;;;;3.53;1.45;;;;;;;18.73;44.30;100861.88;5048944;28;20074;-74
2023/12/28 01:01:18;;;;;;;3.75;1.60;;;;;;;18.71;44.37;100860.31;5066886;28;20580;-72
2023/12/28 01:03:43;;;;;;;2.92;1.30;;;;;;;18.62;44.24;100846.09;5066672;28;20025;-73
2023/12/28 01:06:08;;;;;;;3.85;1.70;;;;;;;18.60;44.26;100853.31;5066155;28;20038;-73
2023/12/28 01:08:34;;;;;;;3.33;1.60;;;;;;;18.60;44.14;100851.50;5066676;28;20028;-73
2023/12/28 01:11:00;;;;;;;3.10;1.45;;;;;;;18.60;44.55;100863.88;5066788;28;20261;-73
2023/12/28 01:13:27;;;;;;;2.95;1.45;;;;;;;18.63;44.48;100867.09;5066595;28;20070;-73
2023/12/28 01:15:52;;;;;;;3.40;1.60;;;;;;;18.61;44.46;100862.91;5066415;28;20099;-73
2023/12/28 01:18:18;;;;;;;2.83;1.48;;;;;;;18.64;44.71;100871.41;5066848;28;20028;-73
2023/12/28 01:20:43;;;;;;;3.08;1.40;;;;;;;18.60;44.46;100874.44;5066640;28;20028;-73
2023/12/28 01:23:08;;;;;;;4.43;1.70;;;;;;;18.63;44.44;100875.00;5066511;28;20515;-73
2023/12/28 01:25:34;;;;;;;3.23;1.30;;;;;;;18.61;44.43;100892.78;5066272;28;20035;-73
2023/12/28 01:27:59;;;;;;;4.20;1.83;;;;;;;18.62;44.73;100891.81;5048661;28;20818;-73
2023/12/28 01:30:26;;;;;;;3.38;1.65;;;;;;;18.62;44.66;100885.69;5066207;28;20098;-74
2023/12/28 01:32:51;;;;;;;3.33;1.60;;;;;;;18.58;44.70;100887.75;5066536;28;20032;-73
2023/12/28 01:35:16;;;;;;;2.72;1.40;;;;;;;18.60;44.57;100883.19;5065605;28;20032;-73
2023/12/28 01:37:42;;;;;;;2.67;1.30;;;;;;;18.58;44.45;100886.91;5065271;28;20074;-73
2023/12/28 01:40:09;;;;;;;3.30;1.60;;;;;;;18.50;44.45;100879.63;5064973;28;20024;-73
2023/12/28 01:42:35;;;;;;;2.97;1.30;;;;;;;18.58;44.61;100894.81;5065020;28;20032;-73
2023/12/28 01:45:00;;;;;;;4.22;1.30;;;;;;;18.49;44.85;100888.50;5065224;28;20037;-73
2023/12/28 01:47:26;;;;;;;3.22;1.40;;;;;;;18.54;44.59;100890.78;5065181;28;20393;-73
2023/12/28 01:49:53;;;;;;;2.70;1.38;;;;;;;18.56;44.67;100905.50;5065707;28;20033;-73
2023/12/28 01:52:19;;;;;;;2.33;1.15;;;;;;;18.49;44.63;100896.44;5066294;28;20033;-73
2023/12/28 01:54:44;;;;;;;3.53;1.42;;;;;;;18.55;44.86;100902.97;5065566;28;20044;-73
2023/12/28 01:57:10;;;;;;;3.35;1.52;;;;;;;18.56;44.64;100904.66;5066306;28;20055;-74
2023/12/28 01:59:36;;;;;;;3.97;1.45;;;;;;;18.46;44.45;100896.69;5065643;28;20036;-73
2023/12/28 02:02:02;;;;;;;2.72;1.10;;;;;;;18.45;44.70;100900.25;5065096;28;20373;-73
2023/12/28 02:04:28;;;;;;;2.92;1.30;;;;;;;18.45;44.63;100895.84;5064884;28;20468;-74
2023/12/28 02:06:59;;;;;;;3.85;1.33;;;;;;;18.49;44.76;100906.97;5065395;28;20039;-73
2023/12/28 02:09:25;;;;;;;2.63;1.42;;;;;;;18.44;44.85;100901.25;5065759;28;20028;-73
2023/12/28 02:11:51;;;;;;;2.75;1.33;;;;;;;18.50;44.74;100919.22;5065768;28;20471;-73
2023/12/28 02:14:17;;;;;;;3.50;1.30;;;;;;;18.44;44.89;100895.97;5065791;28;20366;-73
2023/12/28 02:16:50;;;;;;;2.90;1.35;;;;;;;18.49;44.62;100906.97;5066050;28;20043;-73
2023/12/28 02:20:00;;;;;;;3.90;1.42;;;;;;;18.51;44.74;100917.41;5065847;28;20059;-73
2023/12/28 02:22:27;;;;;;;2.80;1.20;;;;;;;18.49;44.81;100913.09;5063920;28;20060;-73
2023/12/28 02:25:06;;;;;;;3.38;1.58;;;;;;;18.44;44.63;100909.16;5069078;28;20085;-73
2023/12/28 02:27:33;;;;;;;2.90;1.25;;;;;;;18.41;44.69;100907.59;5068024;28;20024;-73
2023/12/28 02:29:59;;;;;;;2.70;1.27;;;;;;;18.38;44.63;100902.56;5068845;28;20032;-74
2023/12/28 02:32:47;;;;;;;4.43;1.63;;;;;;;18.46;44.58;100913.34;5068513;28;20032;-73
2023/12/28 02:35:35;;;;;;;2.78;1.30;;;;;;;18.46;44.71;100917.78;5069225;28;20032;-73
2023/12/28 02:38:09;;;;;;;3.15;1.40;;;;;;;18.45;44.46;100902.91;5069079;28;20040;-73
2023/12/28 02:40:43;;;;;;;3.22;1.40;;;;;;;18.44;44.65;100902.06;5068726;28;20036;-72
2023/12/28 02:43:09;;;;;;;;;;;;;;;18.42;44.88;100905.78;5069944;28;20024;-72
2023/12/28 02:45:35;;;;;;;3.20;1.40;;;;;;;18.29;44.75;100880.44;5069297;28;19916;-73
2023/12/28 02:48:01;;;;;;;2.75;1.25;;;;;;;18.33;44.93;100891.56;5069014;28;20452;-72
2023/12/28 02:50:26;;;;;;;3.60;1.50;;;;;;;18.33;44.93;100894.19;5068831;28;20036;-72
2023/12/28 02:52:52;;;;;;;3.25;1.40;;;;;;;18.31;44.81;100904.06;5068009;28;20059;-72
2023/12/28 02:55:17;;;;;;;3.33;1.40;;;;;;;18.36;44.75;100898.38;5067977;28;20075;-73
2023/12/28 02:57:44;;;;;;;2.67;1.27;;;;;;;18.30;44.81;100875.97;5068211;28;20028;-72
2023/12/28 03:00:10;;;;;;;3.45;1.60;;;;;;;18.37;44.40;100887.69;5068170;28;20025;-72
2023/12/28 03:02:37;;;;;;;3.65;1.42;;;;;;;18.30;44.85;100879.44;5066698;28;20040;-73
2023/12/28 03:05:02;;;;;;;3.97;1.60;;;;;;;18.39;44.97;100893.72;5067807;28;20037;-72
2023/12/28 03:07:28;;;;;;;3.72;1.67;;;;;;;18.37;44.69;100892.97;5069475;28;20059;-72
2023/12/28 03:09:53;;;;;;;3.20;1.20;;;;;;;18.38;45.04;100892.03;5068879;28;20032;-72
2023/12/28 03:12:18;;;;;;;3.45;1.30;;;;;;;18.31;44.82;100875.03;5069025;28;20067;-73
2023/12/28 03:14:44;;;;;;;3.33;1.20;;;;;;;18.27;44.73;100876.22;5068562;28;20040;-72
2023/12/28 03:17:11;;;;;;;2.85;1.42;;;;;;;18.31;44.73;100872.38;5068472;28;20036;-72
2023/12/28 03:19:36;;;;;;;4.70;1.48;;;;;;;18.33;44.82;100885.47;5068789;28;20025;-72
2023/12/28 03:22:02;;;;;;;2.75;1.20;;;;;;;18.27;44.76;100873.59;5068616;28;20055;-72
2023/12/28 03:24:27;;;;;;;2.97;1.25;;;;;;;18.34;44.77;100893.25;5068511;28;20477;-72
2023/12/28 03:26:52;;;;;;;3.17;1.25;;;;;;;18.31;44.93;100886.41;5068783;28;20063;-73
2023/12/28 03:29:18;;;;;;;2.53;1.20;;;;;;;18.31;44.85;100886.41;5068595;28;20032;-72
2023/12/28 03:31:43;;;;;;;3.25;1.30;;;;;;;18.32;44.98;100905.72;5068136;28;20110;-72
2023/12/28 03:34:08;;;;;;;2.67;1.30;;;;;;;18.32;44.89;100900.44;5068456;28;20032;-72
2023/12/28 03:36:33;;;;;;;3.30;1.23;;;;;;;18.26;45.05;100890.38;5067769;28;20063;-72
2023/12/28 03:38:59;;;;;;;3.03;1.37;;;;;;;18.27;44.80;100906.06;5068317;28;20039;-72
2023/12/28 03:41:24;;;;;;;3.92;1.50;;;;;;;18.25;44.89;100901.91;5068219;28;20273;-73
2023/12/28 03:43:49;;;;;;;4.30;1.30;;;;;;;18.26;44.87;100903.56;5068495;28;20028;-72
2023/12/28 03:46:15;;;;;;;2.83;1.17;;;;;;;18.25;44.91;100886.06;5068325;28;20038;-73
2023/12/28 03:48:40;;;;;;;3.38;1.23;;;;;;;18.30;44.76;100891.81;5068156;28;20067;-72
2023/12/28 03:51:06;;;;;;;2.90;1.20;;;;;;;18.24;44.86;100879.94;5067634;28;20036;-72
2023/12/28 03:53:31;;;;;;;3.80;1.52;;;;;;;18.30;44.69;100887.38;5068319;28;21322;-72
2023/12/28 03:55:58;;;;;;;3.45;1.30;;;;;;;18.31;44.66;100906.69;5067698;28;20481;-72
2023/12/28 03:58:23;;;;;;;2.97;1.23;;;;;;;18.23;44.72;100869.50;5068151;28;20387;-72
2023/12/28 04:00:48;;;;;;;2.85;1.40;;;;;;;18.30;44.74;100887.38;5067792;28;20037;-72
2023/12/28 04:03:14;;;;;;;3.67;1.30;;;;;;;18.29;44.66;100890.97;5067296;28;20099;-72
2023/12/28 04:05:39;;;;;;;3.93;1.37;;;;;;;18.22;44.49;100886.31;5067797;28;20721;-72
2023/12/28 04:08:05;;;;;;;4.25;1.30;;;;;;;18.24;44.67;100868.56;5067362;28;20261;-72
2023/12/28 04:10:32;;;;;;;3.08;1.33;;;;;;;18.21;44.81;100884.63;5067352;28;20025;-72
2023/12/28 04:12:59;;;;;;;3.92;1.33;;;;;;;18.20;44.56;100894.34;5067289;28;20115;-72
2023/12/28 04:15:25;;;;;;;5.43;1.40;;;;;;;18.25;44.72;100902.72;5067501;28;20563;-72
2023/12/28 04:17:50;;;;;;;3.50;1.10;;;;;;;18.22;44.57;100891.59;5068057;28;20496;-72
2023/12/28 04:20:15;;;;;;;2.90;1.20;;;;;;;18.22;44.66;100883.69;5067037;28;20021;-72
2023/12/28 04:22:43;;;;;;;3.40;1.25;;;;;;;18.22;44.58;100892.44;5066878;28;20040;-73
2023/12/28 04:25:08;;;;;;;3.58;1.42;;;;;;;18.28;44.65;100907.75;5066557;28;20037;-72
2023/12/28 04:27:34;;;;;;;3.50;1.42;;;;;;;18.25;44.41;100905.38;5065745;28;20082;-72
2023/12/28 04:29:59;;;;;;;3.97;1.30;;;;;;;18.25;44.15;100910.66;5066350;28;20034;-73
2023/12/28 04:32:24;;;;;;;3.97;1.20;;;;;;;18.26;44.46;100906.19;5066584;28;20273;-72
2023/12/28 04:34:49;;;;;;;3.42;1.40;;;;;;;18.16;44.74;100882.38;5066014;28;20085;-72
2023/12/28 04:37:15;;;;;;;4.30;1.40;;;;;;;18.23;44.34;100911.72;5067293;28;20024;-73
2023/12/28 04:39:40;;;;;;;3.95;1.20;;;;;;;18.24;44.35;100913.41;5066759;28;20660;-73
2023/12/28 04:42:05;;;;;;;3.03;1.17;;;;;;;18.18;44.65;100906.81;5067117;28;20032;-73
2023/12/28 04:44:30;;;;;;;3.28;1.27;;;;;;;18.24;44.68;100906.31;5066714;28;20041;-72
2023/12/28 04:46:56;;;;;;;2.75;1.10;;;;;;;18.24;44.48;100913.41;5066999;28;20040;-73
2023/12/28 04:49:21;;;;;;;4.15;1.40;;;;;;;18.21;44.63;100911.00;5066973;28;20063;-73
2023/12/28 04:51:46;;;;;;;4.47;1.42;;;;;;;18.23;44.30;100914.34;5065877;28;20111;-74
2023/12/28 04:54:12;;;;;;;4.32;1.50;;;;;;;18.20;44.45;100912.81;5066010;28;20059;-74
2023/12/28 04:56:37;;;;;;;6.32;1.77;;;;;;;18.19;44.36;100897.13;5065560;28;20032;-73
2023/12/28 04:59:03;;;;;;;4.13;1.40;;;;;;;18.21;44.45;100901.28;5066111;28;20362;-73
2023/12/28 05:01:31;;;;;;;4.47;1.30;;;;;;;18.12;44.40;100897.59;5065715;28;20107;-74
2023/12/28 05:03:56;;;;;;;4.35;1.50;;;;;;;18.16;44.58;100900.84;5064033;28;20047;-74
2023/12/28 05:06:22;;;;;;;3.58;1.13;;;;;;;18.17;44.45;100909.59;5066649;28;20024;-74
2023/12/28 05:08:47;;;;;;;3.85;1.27;;;;;;;18.09;44.54;100910.22;5066643;28;20404;-74
2023/12/28 05:11:12;;;;;;;5.78;1.60;;;;;;;18.18;44.28;100916.53;5065593;28;20111;-73
2023/12/28 05:13:38;;;;;;;3.28;1.30;;;;;;;18.17;44.44;100923.63;5066826;28;20476;-73
2023/12/28 05:16:03;;;;;;;4.57;1.40;;;;;;;18.19;44.46;100932.25;5066460;28;20042;-74
2023/12/28 05:18:29;;;;;;;2.75;1.08;;;;;;;18.19;44.32;100923.50;5065494;28;20263;-73
2023/12/28 05:20:54;;;;;;;4.13;1.35;;;;;;;18.19;44.72;100910.31;5065772;28;20024;-74
2023/12/28 05:23:20;;;;;;;3.15;1.08;;;;;;;18.16;44.41;100903.47;5066032;28;20033;-72
2023/12/28 05:25:46;;;;;;;4.53;1.50;;;;;;;18.10;44.45;100888.13;5066399;28;20040;-73
2023/12/28 05:28:11;;;;;;;4.38;1.50;;;;;;;18.09;44.45;100891.75;5066320;28;20127;-73
2023/12/28 05:30:37;;;;;;;3.17;1.20;;;;;;;18.10;44.35;100891.63;5066091;28;20091;-73
2023/12/28 05:33:03;;;;;;;5.65;1.63;;;;;;;18.12;44.34;100899.41;5066634;28;20369;-73
2023/12/28 05:35:28;;;;;;;3.45;1.30;;;;;;;18.15;44.25;100911.50;5065562;28;20083;-73
2023/12/28 05:37:54;;;;;;;4.43;1.30;;;;;;;18.15;44.23;100900.94;5064763;28;20033;-73
2023/12/28 05:40:19;;;;;;;3.78;1.20;;;;;;;18.15;44.32;100909.72;5064878;28;20285;-73
2023/12/28 05:42:44;;;;;;;3.53;1.25;;;;;;;18.16;44.22;100902.63;5065600;28;20480;-73
2023/12/28 05:45:10;;;;;;;4.95;1.42;;;;;;;18.06;44.31;100898.09;5065687;28;20086;-74
2023/12/28 05:47:35;;;;;;;4.20;1.25;;;;;;;18.02;44.19;100901.09;5065114;28;20768;-73
2023/12/28 05:50:02;;;;;;;6.03;1.40;;;;;;;18.05;43.79;100877.13;5065816;28;20420;-74
2023/12/28 05:52:28;;;;;;;4.88;1.42;;;;;;;18.13;43.91;100919.53;5066099;28;21201;-74
2023/12/28 05:54:55;;;;;;;3.05;1.00;;;;;;;18.13;44.25;100920.41;5066501;28;20032;-74
2023/12/28 05:57:20;;;;;;;4.40;1.30;;;;;;;18.13;44.21;100925.66;5069787;28;20031;-74
2023/12/28 05:59:45;;;;;;;5.30;1.45;;;;;;;18.10;44.24;100923.28;5070022;28;20491;-73
2023/12/28 06:02:11;;;;;;;5.95;1.65;;;;;;;18.09;44.08;100916.31;5069174;28;20469;-73
2023/12/28 06:04:36;;;;;;;4.00;1.27;;;;;;;18.03;44.22;100919.44;5069745;28;20056;-73
2023/12/28 06:07:04;;;;;;;4.75;1.45;;;;;;;18.13;44.09;100930.94;5070170;28;20039;-73
2023/12/28 06:09:30;;;;;;;4.78;1.38;;;;;;;18.05;44.38;100914.88;5069958;28;20032;-74
2023/12/28 06:11:56;;;;;;;4.10;1.60;;;;;;;18.08;44.27;100919.06;5069767;28;20391;-73
2023/12/28 06:14:21;;;;;;;4.28;1.20;;;;;;;18.10;44.65;100915.38;5070124;28;20025;-74
2023/12/28 06:16:46;;;;;;;4.93;1.40;;;;;;;18.12;44.80;100918.72;5069941;28;20468;-74
2023/12/28 06:19:12;;;;;;;3.83;1.10;;;;;;;18.12;44.55;100931.06;5069464;28;20043;-73
2023/12/28 06:21:38;;;;;;;5.32;1.50;;;;;;;18.22;44.80;100949.63;5069517;28;20029;-72
2023/12/28 06:24:03;;;;;;;3.90;1.13;;;;;;;18.20;44.68;100933.06;5069903;28;20036;-74
2023/12/28 06:26:29;;;;;;;4.38;1.30;;;;;;;18.13;44.84;100923.03;5069644;28;20036;-73
2023/12/28 06:28:54;;;;;;;3.75;1.00;;;;;;;18.21;44.70;100926.84;5069962;28;20075;-74
2023/12/28 06:31:19;;;;;;;4.50;1.70;;;;;;;18.19;44.59;100932.25;5068903;28;21171;-73
2023/12/28 06:33:45;;;;;;;3.15;1.00;;;;;;;18.32;44.70;100955.84;5069273;28;20029;-73
2023/12/28 06:36:11;;;;;;;4.45;1.20;;;;;;;18.37;44.67;100966.84;5069202;28;20613;-73
2023/12/28 06:38:37;;;;;;;5.25;1.17;;;;;;;18.31;44.63;100949.72;5069603;28;20040;-73
2023/12/28 06:41:02;;;;;;;4.05;1.42;;;;;;;18.38;44.69;100954.53;5069380;28;20035;-73
2023/12/28 06:43:28;;;;;;;3.92;1.13;;;;;;;18.31;44.49;100941.81;5069533;28;20111;-73
2023/12/28 06:45:54;;;;;;;3.22;1.20;;;;;;;18.45;44.57;100968.88;5069252;28;20062;-73
2023/12/28 06:48:19;;;;;;;2.78;1.00;;;;;;;18.37;44.63;100956.28;5069205;28;20059;-74
2023/12/28 06:50:44;;;;;;;4.47;1.42;;;;;;;18.49;44.36;100967.69;5068751;28;20544;-74
2023/12/28 06:53:10;;;;;;;3.67;1.40;;;;;;;18.51;44.37;100968.38;5069405;28;20171;-73
2023/12/28 06:55:35;;;;;;;3.17;0.85;;;;;;;18.44;44.45;100956.66;5069072;28;20285;-73
2023/12/28 06:58:01;;;;;;;3.60;1.13;;;;;;;18.51;44.35;100960.47;5069067;28;20036;-74
2023/12/28 07:00:26;;;;;;;4.32;1.35;;;;;;;18.46;44.30;100936.25;5069122;28;20031;-74
2023/12/28 07:02:52;;;;;;;3.90;1.23;;;;;;;18.47;44.47;100948.50;5067726;28;20469;-73
2023/12/28 07:05:17;;;;;;;3.75;1.10;;;;;;;18.46;44.27;100952.09;5068838;28;20137;-72
2023/12/28 07:07:42;;;;;;;4.00;1.00;;;;;;;18.45;44.24;100948.63;5068117;28;20487;-73
2023/12/28 07:10:08;;;;;;;5.03;1.00;;;;;;;18.48;44.61;100950.16;5068265;28;20285;-74
2023/12/28 07:12:33;;;;;;;3.80;1.30;;;;;;;18.43;44.51;100950.53;5068611;28;20074;-74
2023/12/28 07:14:58;;;;;;;4.15;1.30;;;;;;;18.46;44.39;100942.38;5067762;28;20039;-75
2023/12/28 07:17:24;;;;;;;4.40;1.30;;;;;;;18.55;44.54;100966.31;5068079;28;20924;-74
2023/12/28 07:19:49;;;;;;;3.87;1.27;;;;;;;18.55;44.29;100975.09;5068383;28;20261;-73
2023/12/28 07:22:14;;;;;;;4.47;1.40;;;;;;;18.57;44.41;100977.63;5068775;28;21732;-74
2023/12/28 07:24:39;;;;;;;4.65;1.15;;;;;;;18.47;44.58;100978.34;5068842;28;20477;-74
2023/12/28 07:27:05;;;;;;;5.40;1.50;;;;;;;18.54;44.63;100991.91;5069071;28;20834;-74
2023/12/28 07:29:30;;;;;;;3.33;0.80;;;;;;;18.47;44.48;100977.53;5068487;28;20261;-74
2023/12/28 07:31:55;;;;;;;4.55;1.20;;;;;;;18.49;44.45;100994.91;5068619;28;20162;-74
2023/12/28 07:34:20;;;;;;;3.78;1.08;;;;;;;18.49;44.61;100986.97;5068825;28;20546;-74
2023/12/28 07:36:46;;;;;;;4.10;1.10;;;;;;;18.49;44.47;100991.44;5067663;28;20775;-74
2023/12/28 07:39:11;;;;;;;3.33;1.07;;;;;;;18.58;44.37;101005.66;5068176;28;20269;-74
2023/12/28 07:41:37;;;;;;;4.53;1.40;;;;;;;18.48;44.37;100984.47;5067840;28;20335;-74
2023/12/28 07:44:02;;;;;;;4.78;1.48;;;;;;;18.58;44.35;101016.22;5067361;28;20025;-73
2023/12/28 07:46:27;;;;;;;3.40;1.10;;;;;;;18.48;44.32;100990.59;5067953;28;20028;-74
2023/12/28 07:48:52;;;;;;;3.72;1.30;;;;;;;18.53;44.17;101015.78;5067558;28;20044;-74
2023/12/28 07:51:18;;;;;;;5.88;1.40;;;;;;;18.54;44.41;101015.66;5067729;28;20424;-74
2023/12/28 07:53:43;;;;;;;5.70;1.40;;;;;;;18.44;44.30;101002.34;5067748;28;20115;-75
2023/12/28 07:56:08;;;;;;;5.50;1.48;;;;;;;18.46;44.25;101016.25;5049496;28;20047;-72
2023/12/28 07:58:34;;;;;;;3.95;1.30;;;;;;;18.47;44.23;101012.66;5068352;28;20822;-73
2023/12/28 08:01:00;;;;;;;4.45;1.50;;;;;;;18.44;44.32;100999.72;5067559;28;20032;-74
2023/12/28 08:03:25;;;;;;;4.38;1.23;;;;;;;18.44;44.39;101001.53;5067099;28;20067;-72
2023/12/28 08:05:50;;;;;;;5.07;1.35;;;;;;;18.55;44.29;101040.22;5066803;28;20464;-72
2023/12/28 08:08:15;;;;;;;4.10;1.25;;;;;;;18.54;44.39;101028.00;5068194;28;20071;-73
2023/12/28 08:10:41;;;;;;;3.65;1.00;;;;;;;18.48;44.44;101032.81;5068154;28;20036;-72
2023/12/28 08:13:06;;;;;;;5.68;1.50;;;;;;;18.46;43.96;101028.63;5068488;28;20071;-72
2023/12/28 08:15:31;;;;;;;4.40;1.30;;;;;;;18.46;44.14;101028.63;5068572;28;20459;-72
2023/12/28 08:17:56;;;;;;;4.53;1.30;;;;;;;18.48;44.19;101026.69;5067410;28;20257;-72
2023/12/28 08:20:22;;;;;;;4.73;1.20;;;;;;;18.55;44.17;101045.50;5068136;28;20271;-73
2023/12/28 08:22:47;;;;;;;6.73;1.50;;;;;;;18.54;44.20;101028.00;5068151;28;20761;-73
2023/12/28 08:25:12;;;;;;;5.13;1.20;;;;;;;18.54;44.48;101028.00;5068139;28;20311;-72
2023/12/28 08:27:38;;;;;;;4.78;1.20;;;;;;;18.49;44.25;101021.28;5067486;28;20280;-72
2023/12/28 08:30:05;;;;;;;5.32;1.65;;;;;;;18.57;44.48;101033.03;5067947;28;20396;-71
2023/12/28 08:32:30;;;;;;;6.22;1.50;;;;;;;18.59;44.68;101037.22;5067699;28;20428;-73
2023/12/28 08:34:55;;;;;;;6.03;1.50;;;;;;;18.53;44.75;101019.25;5068177;28;20024;-73
2023/12/28 08:37:21;;;;;;;4.95;1.15;;;;;;;18.55;44.83;101021.75;5068432;28;21397;-73
2023/12/28 08:39:46;;;;;;;5.85;1.75;;;;;;;18.53;44.66;101013.13;5069056;28;20033;-73
2023/12/28 08:42:11;;;;;;;3.88;1.13;;;;;;;18.57;44.81;101025.13;5069086;28;20143;-73
2023/12/28 08:44:37;;;;;;;5.68;1.40;;;;;;;18.59;44.63;101036.41;5069019;28;20492;-74
2023/12/28 08:47:02;;;;;;;6.03;1.38;;;;;;;18.59;44.98;101033.75;5068329;28;20043;-72
2023/12/28 08:49:29;;;;;;;5.10;1.42;;;;;;;18.58;44.83;101037.34;5068628;28;20064;-71
2023/12/28 08:51:54;;;;;;;5.25;1.60;;;;;;;18.62;44.69;101038.78;5068345;28;20116;-72
2023/12/28 08:54:19;;;;;;;4.82;0.95;;;;;;;18.56;45.11;101028.72;5068186;28;20659;-73
2023/12/28 08:56:45;;;;;;;4.38;1.20;;;;;;;18.64;45.22;101050.91;5067239;28;20461;-73
2023/12/28 08:59:10;;;;;;;6.47;1.63;;;;;;;18.65;45.47;101054.38;5067695;28;20443;-73
2023/12/28 09:01:35;;;;;;;4.43;1.60;;;;;;;18.64;45.47;101064.13;5068401;28;20024;-74
2023/12/28 09:04:01;;;;;;;6.88;1.60;;;;;;;18.64;45.24;101064.13;5068243;28;20043;-75
2023/12/28 09:06:26;;;;;;;6.03;1.40;;;;;;;18.58;45.33;101069.88;5067810;28;20036;-74
2023/12/28 09:08:52;;;;;;;6.72;1.60;;;;;;;18.56;45.58;101063.03;5069235;28;20048;-74
2023/12/28 09:11:19;;;;;;;6.97;1.65;;;;;;;18.57;45.56;101062.91;5068615;28;20024;-73
2023/12/28 09:13:44;;;;;;;5.03;1.45;;;;;;;18.58;45.54;101063.75;5068362;28;20385;-74
2023/12/28 09:16:11;;;;;;;6.03;1.65;;;;;;;18.59;45.47;101063.63;5068775;28;20032;-74
2023/12/28 09:18:37;;;;;;;6.82;1.35;;;;;;;18.68;45.28;101097.22;5068831;28;20039;-74
2023/12/28 09:21:07;;;;;;;6.18;1.30;;;;;;;18.60;45.45;101073.22;5068567;28;20043;-74
2023/12/28 09:23:34;;;;;;;5.60;1.35;;;;;;;18.70;45.19;101093.63;5067573;28;20480;-74
2023/12/28 09:26:00;;;;;;;5.43;1.65;;;;;;;18.65;45.29;101083.41;5067727;28;20048;-73
2023/12/28 09:28:26;;;;;;;5.13;1.38;;;;;;;18.58;45.27;101075.16;5068112;28;20043;-74
2023/12/28 09:30:51;;;;;;;5.00;1.60;;;;;;;18.68;45.14;101083.19;5067410;28;20036;-74
2023/12/28 09:33:16;;;;;;;6.28;1.63;;;;;;;18.68;45.42;101096.38;5067469;28;20037;-74
2023/12/28 09:35:42;;;;;;;6.03;1.30;;;;;;;18.62;45.35;101091.59;5049014;28;20060;-71
2023/12/28 09:38:08;;;;;;;4.15;1.20;;;;;;;18.66;45.11;101099.13;5067122;28;20024;-73
2023/12/28 09:40:33;;;;;;;5.15;1.50;;;;;;;18.58;45.14;101085.72;5065126;28;20124;-72
2023/12/28 09:43:36;;;;;;;6.53;1.40;;;;;;;18.70;45.27;101104.19;5067730;28;20024;-73
2023/12/28 09:46:05;;;;;;;4.88;1.17;;;;;;;18.65;45.37;101105.38;5068653;28;20118;-73
2023/12/28 09:48:32;;;;;;;5.32;1.25;;;;;;;18.66;45.36;101114.97;5068981;28;20048;-73
2023/12/28 09:50:57;;;;;;;5.20;1.52;;;;;;;18.59;45.21;101091.81;5069015;28;20472;-72
2023/12/28 09:53:26;;;;;;;5.13;1.30;;;;;;;18.63;44.93;101103.84;5066959;28;20086;-67
2023/12/28 09:55:52;;;;;;;4.75;1.30;;;;;;;18.68;44.86;101120.13;5065931;28;20048;-68
2023/12/28 09:58:19;;;;;;;5.43;1.38;;;;;;;18.66;44.80;101125.53;5066973;28;20048;-68
2023/12/28 10:00:46;;;;;;;7.18;1.63;;;;;;;18.67;44.88;101124.59;5049021;28;20028;-67
2023/12/28 10:03:13;;;;;;;6.20;1.30;;;;;;;18.57;45.05;101107.78;5066336;28;20028;-66
2023/12/28 10:05:40;;;;;;;5.15;1.30;;;;;;;18.57;44.87;101109.59;5066255;28;20039;-68
2023/12/28 10:08:06;;;;;;;5.28;1.40;;;;;;;18.64;44.78;101126.59;5066312;28;20028;-66
2023/12/28 10:10:31;;;;;;;6.32;1.90;;;;;;;18.65;44.79;101130.94;5066254;28;20055;-66
2023/12/28 10:12:56;;;;;;;5.70;1.50;;;;;;;18.61;44.58;101118.94;5066165;28;20036;-65
2023/12/28 10:15:21;;;;;;;5.13;1.33;;;;;;;18.66;44.73;101136.09;5065813;28;20315;-66
2023/12/28 10:17:47;;;;;;;4.00;1.23;;;;;;;18.54;44.65;101102.75;5065894;28;20046;-65
2023/12/28 10:20:14;;;;;;;5.13;1.40;;;;;;;18.62;44.75;101131.19;5065706;28;20118;-65
2023/12/28 10:22:39;;;;;;;4.97;1.58;;;;;;;18.55;44.79;101115.00;5065981;28;20369;-65
2023/12/28 10:25:05;;;;;;;5.07;1.52;;;;;;;18.64;44.67;101131.88;5065668;28;20033;-65
2023/12/28 10:27:31;;;;;;;5.22;1.45;;;;;;;18.59;44.82;101123.50;5065707;28;20424;-65
2023/12/28 10:29:56;;;;;;;4.72;1.50;;;;;;;18.54;44.78;101107.19;5065145;28;20526;-65
2023/12/28 10:32:24;;;;;;;6.40;1.60;;;;;;;18.62;44.67;101132.00;5065638;28;20086;-65
2023/12/28 10:34:51;;;;;;;3.80;1.13;;;;;;;18.63;44.90;101135.50;5066011;28;20044;-65
2023/12/28 10:37:19;;;;;;;6.45;1.70;;;;;;;18.55;45.09;101114.13;5065727;28;20032;-64
2023/12/28 10:39:47;;;;;;;5.03;1.42;;;;;;;18.64;44.83;101116.06;5065859;28;20103;-65
2023/12/28 10:42:16;;;;;;;4.45;1.27;;;;;;;18.61;44.82;101103.09;5068004;28;20575;-65
2023/12/28 10:44:46;;;;;;;6.78;1.38;;;;;;;18.59;44.76;101099.75;5069113;28;20024;-64
2023/12/28 10:47:18;;;;;;;4.95;1.30;;;;;;;18.65;45.09;101112.47;5068760;28;20090;-64
2023/12/28 10:49:47;;;;;;;6.45;1.30;;;;;;;18.57;44.94;101091.13;5068946;28;20049;-64
2023/12/28 10:52:15;;;;;;;4.65;1.40;;;;;;;18.63;45.13;101102.03;5068987;28;20527;-65
2023/12/28 10:54:41;;;;;;;4.72;1.15;;;;;;;18.66;45.06;101111.50;5068408;28;20103;-65
2023/12/28 10:57:16;;;;;;;5.23;1.40;;;;;;;18.67;45.14;101106.13;5068912;28;20495;-64
2023/12/28 10:59:58;;;;;;;5.63;1.40;;;;;;;18.60;45.00;101085.59;5069074;28;21050;-66
2023/12/28 11:02:28;;;;;;;6.80;1.50;;;;;;;18.68;45.15;101102.50;5067719;28;20028;-64
2023/12/28 11:04:55;;;;;;;6.97;1.50;;;;;;;18.61;45.13;101103.94;5068722;28;20025;-65
2023/12/28 11:07:21;;;;;;;4.65;1.33;;;;;;;18.62;44.97;101097.69;5068796;28;20071;-65
2023/12/28 11:09:48;;;;;;;4.53;1.50;;;;;;;18.63;45.17;101099.38;5068473;28;20111;-64
2023/12/28 11:12:18;;;;;;;7.15;1.40;;;;;;;18.72;44.62;101107.53;5067415;28;20132;-65
2023/12/28 11:14:44;;;;;;;5.68;1.65;;;;;;;18.61;45.18;101090.75;5068197;28;20381;-65
2023/12/28 11:17:10;;;;;;;5.50;1.50;;;;;;;18.68;45.36;101093.75;5068308;28;20046;-64
2023/12/28 11:19:37;;;;;;;6.38;1.33;;;;;;;18.72;44.87;101091.69;5068773;28;20155;-64